sensor_id;sensor_type;location;lat;lon;timestamp;temperature;humidity
13322;DHT22;6730;46.248;6.930;2023-12-07T00:01:46;2.10;99.90
13322;DHT22;6730;46.248;6.930;2023-12-07T00:04:12;1.90;99.90
13322;DHT22;6730;46.248;6.930;2023-12-07T00:06:38;1.70;99.90
13322;DHT22;6730;46.248;6.930;2023-12-07T00:09:03;1.50;99.90
13322;DHT22;6730;46.248;6.930;2023-12-07T00:11:29;1.50;99.90
13322;DHT22;6730;46.248;6.930;2023-12-07T00:13:55;1.40;99.90
13322;DHT22;6730;46.248;6.930;2023-12-07T00:16:21;1.50;99.90
13322;DHT22;6730;46.248;6.930;2023-12-07T00:18:46;1.60;99.90
13322;DHT22;6730;46.248;6.930;2023-12-07T00:21:12;1.70;99.90
13322;DHT22;6730;46.248;6.930;2023-12-07T00:23:38;1.60;99.90
13322;DHT22;6730;46.248;6.930;2023-12-07T00:26:04;1.70;99.90
13322;DHT22;6730;46.248;6.930;2023-12-07T00:28:30;1.40;99.90
13322;DHT22;6730;46.248;6.930;2023-12-07T00:30:56;1.30;99.90
13322;DHT22;6730;46.248;6.930;2023-12-07T00:33:21;1.40;99.90
13322;DHT22;6730;46.248;6.930;2023-12-07T00:35:47;1.40;99.90
13322;DHT22;6730;46.248;6.930;2023-12-07T00:38:13;1.70;99.90
13322;DHT22;6730;46.248;6.930;2023-12-07T00:40:39;1.70;99.90
13322;DHT22;6730;46.248;6.930;2023-12-07T00:43:06;1.80;99.90
13322;DHT22;6730;46.248;6.930;2023-12-07T00:45:32;1.90;99.90
13322;DHT22;6730;46.248;6.930;2023-12-07T00:47:58;1.80;99.90
13322;DHT22;6730;46.248;6.930;2023-12-07T00:50:24;1.80;99.90
13322;DHT22;6730;46.248;6.930;2023-12-07T00:52:49;1.80;99.90
13322;DHT22;6730;46.248;6.930;2023-12-07T00:55:15;1.80;99.90
13322;DHT22;6730;46.248;6.930;2023-12-07T00:57:41;1.70;99.90
13322;DHT22;6730;46.248;6.930;2023-12-07T01:00:07;1.70;99.90
13322;DHT22;6730;46.248;6.930;2023-12-07T01:02:33;1.70;99.90
13322;DHT22;6730;46.248;6.930;2023-12-07T01:04:59;1.80;99.90
13322;DHT22;6730;46.248;6.930;2023-12-07T01:07:25;1.80;99.90
13322;DHT22;6730;46.248;6.930;2023-12-07T01:09:50;1.80;99.90
13322;DHT22;6730;46.248;6.930;2023-12-07T01:12:16;1.60;99.90
13322;DHT22;6730;46.248;6.930;2023-12-07T01:14:42;1.70;99.90
13322;DHT22;6730;46.248;6.930;2023-12-07T01:17:07;1.90;99.90
13322;DHT22;6730;46.248;6.930;2023-12-07T01:19:33;2.00;99.90
13322;DHT22;6730;46.248;6.930;2023-12-07T01:21:59;1.80;99.90
13322;DHT22;6730;46.248;6.930;2023-12-07T01:24:25;1.60;99.90
13322;DHT22;6730;46.248;6.930;2023-12-07T01:26:51;1.60;99.90
13322;DHT22;6730;46.248;6.930;2023-12-07T01:29:16;1.60;99.90
13322;DHT22;6730;46.248;6.930;2023-12-07T01:31:43;1.50;99.90
13322;DHT22;6730;46.248;6.930;2023-12-07T01:34:09;1.70;99.90
13322;DHT22;6730;46.248;6.930;2023-12-07T01:36:35;1.90;99.90
13322;DHT22;6730;46.248;6.930;2023-12-07T01:39:00;2.10;99.90
13322;DHT22;6730;46.248;6.930;2023-12-07T01:41:26;2.30;99.90
13322;DHT22;6730;46.248;6.930;2023-12-07T01:43:52;2.00;99.90
13322;DHT22;6730;46.248;6.930;2023-12-07T01:46:18;1.80;99.90
13322;DHT22;6730;46.248;6.930;2023-12-07T01:48:44;1.60;99.90
13322;DHT22;6730;46.248;6.930;2023-12-07T01:51:13;1.60;99.90
13322;DHT22;6730;46.248;6.930;2023-12-07T01:53:39;1.50;99.90
13322;DHT22;6730;46.248;6.930;2023-12-07T01:56:06;1.50;99.90
13322;DHT22;6730;46.248;6.930;2023-12-07T01:58:33;1.30;99.90
13322;DHT22;6730;46.248;6.930;2023-12-07T02:00:59;1.20;99.90
13322;DHT22;6730;46.248;6.930;2023-12-07T02:03:25;1.30;99.90
13322;DHT22;6730;46.248;6.930;2023-12-07T02:05:53;1.40;99.90
13322;DHT22;6730;46.248;6.930;2023-12-07T02:08:20;1.40;99.90
13322;DHT22;6730;46.248;6.930;2023-12-07T02:10:45;1.20;99.90
13322;DHT22;6730;46.248;6.930;2023-12-07T02:13:11;1.30;99.90
13322;DHT22;6730;46.248;6.930;2023-12-07T02:15:37;1.40;99.90
13322;DHT22;6730;46.248;6.930;2023-12-07T02:18:30;1.60;99.90
13322;DHT22;6730;46.248;6.930;2023-12-07T02:21:08;1.60;99.90
13322;DHT22;6730;46.248;6.930;2023-12-07T02:23:40;1.60;99.90
13322;DHT22;6730;46.248;6.930;2023-12-07T02:29:16;1.80;99.90
13322;DHT22;6730;46.248;6.930;2023-12-07T02:31:42;1.80;99.90
13322;DHT22;6730;46.248;6.930;2023-12-07T02:34:08;1.90;99.90
13322;DHT22;6730;46.248;6.930;2023-12-07T02:36:35;1.80;99.90
13322;DHT22;6730;46.248;6.930;2023-12-07T02:39:05;1.70;99.90
13322;DHT22;6730;46.248;6.930;2023-12-07T02:41:32;1.90;99.90
13322;DHT22;6730;46.248;6.930;2023-12-07T02:43:59;1.90;99.90
13322;DHT22;6730;46.248;6.930;2023-12-07T02:46:25;1.90;99.90
13322;DHT22;6730;46.248;6.930;2023-12-07T02:48:51;2.00;99.90
13322;DHT22;6730;46.248;6.930;2023-12-07T02:51:17;1.90;99.90
13322;DHT22;6730;46.248;6.930;2023-12-07T02:53:42;1.70;99.90
13322;DHT22;6730;46.248;6.930;2023-12-07T02:56:08;1.50;99.90
13322;DHT22;6730;46.248;6.930;2023-12-07T02:58:35;1.30;99.90
13322;DHT22;6730;46.248;6.930;2023-12-07T03:01:01;1.10;99.90
13322;DHT22;6730;46.248;6.930;2023-12-07T03:03:26;1.20;99.90
13322;DHT22;6730;46.248;6.930;2023-12-07T03:05:52;1.00;99.90
13322;DHT22;6730;46.248;6.930;2023-12-07T03:08:18;1.10;99.90
13322;DHT22;6730;46.248;6.930;2023-12-07T03:10:45;1.20;99.90
13322;DHT22;6730;46.248;6.930;2023-12-07T03:13:10;1.10;99.90
13322;DHT22;6730;46.248;6.930;2023-12-07T03:15:36;1.10;99.90
13322;DHT22;6730;46.248;6.930;2023-12-07T03:18:01;1.30;99.90
13322;DHT22;6730;46.248;6.930;2023-12-07T03:20:27;1.30;99.90
13322;DHT22;6730;46.248;6.930;2023-12-07T03:22:53;1.30;99.90
13322;DHT22;6730;46.248;6.930;2023-12-07T03:25:18;1.30;99.90
13322;DHT22;6730;46.248;6.930;2023-12-07T03:27:44;1.30;99.90
13322;DHT22;6730;46.248;6.930;2023-12-07T03:30:10;1.50;99.90
13322;DHT22;6730;46.248;6.930;2023-12-07T03:32:36;1.70;99.90
13322;DHT22;6730;46.248;6.930;2023-12-07T03:35:03;1.70;99.90
13322;DHT22;6730;46.248;6.930;2023-12-07T03:37:29;1.40;99.90
13322;DHT22;6730;46.248;6.930;2023-12-07T03:39:54;1.20;99.90
13322;DHT22;6730;46.248;6.930;2023-12-07T03:42:20;1.10;99.90
13322;DHT22;6730;46.248;6.930;2023-12-07T03:44:45;1.00;99.90
13322;DHT22;6730;46.248;6.930;2023-12-07T03:47:12;1.00;99.90
13322;DHT22;6730;46.248;6.930;2023-12-07T03:49:38;0.90;99.90
13322;DHT22;6730;46.248;6.930;2023-12-07T03:52:04;1.00;99.90
13322;DHT22;6730;46.248;6.930;2023-12-07T03:54:30;1.00;99.90
13322;DHT22;6730;46.248;6.930;2023-12-07T03:56:56;1.10;99.90
13322;DHT22;6730;46.248;6.930;2023-12-07T03:59:21;1.30;99.90
13322;DHT22;6730;46.248;6.930;2023-12-07T04:01:47;1.30;99.90
13322;DHT22;6730;46.248;6.930;2023-12-07T04:04:13;1.30;99.90
13322;DHT22;6730;46.248;6.930;2023-12-07T04:06:38;1.20;99.90
13322;DHT22;6730;46.248;6.930;2023-12-07T04:09:04;1.10;99.90
13322;DHT22;6730;46.248;6.930;2023-12-07T04:11:30;1.00;99.90
13322;DHT22;6730;46.248;6.930;2023-12-07T04:13:55;1.10;99.90
13322;DHT22;6730;46.248;6.930;2023-12-07T04:16:21;1.10;99.90
13322;DHT22;6730;46.248;6.930;2023-12-07T04:18:47;1.20;99.90
13322;DHT22;6730;46.248;6.930;2023-12-07T04:21:12;1.30;99.90
13322;DHT22;6730;46.248;6.930;2023-12-07T04:23:38;1.10;99.90
13322;DHT22;6730;46.248;6.930;2023-12-07T04:26:04;1.00;99.90
13322;DHT22;6730;46.248;6.930;2023-12-07T04:28:30;0.80;99.90
13322;DHT22;6730;46.248;6.930;2023-12-07T04:30:55;0.80;99.90
13322;DHT22;6730;46.248;6.930;2023-12-07T04:33:21;0.90;99.90
13322;DHT22;6730;46.248;6.930;2023-12-07T04:35:47;0.70;99.90
13322;DHT22;6730;46.248;6.930;2023-12-07T04:38:12;0.70;99.90
13322;DHT22;6730;46.248;6.930;2023-12-07T04:40:38;0.80;99.90
13322;DHT22;6730;46.248;6.930;2023-12-07T04:43:04;0.80;99.90
13322;DHT22;6730;46.248;6.930;2023-12-07T04:45:30;0.80;99.90
13322;DHT22;6730;46.248;6.930;2023-12-07T04:47:55;0.80;99.90
13322;DHT22;6730;46.248;6.930;2023-12-07T04:50:22;0.90;99.90
13322;DHT22;6730;46.248;6.930;2023-12-07T04:52:48;1.20;99.90
13322;DHT22;6730;46.248;6.930;2023-12-07T04:55:14;1.50;99.90
13322;DHT22;6730;46.248;6.930;2023-12-07T04:57:41;1.70;99.90
13322;DHT22;6730;46.248;6.930;2023-12-07T05:00:07;1.60;99.90
13322;DHT22;6730;46.248;6.930;2023-12-07T05:02:35;1.60;99.90
13322;DHT22;6730;46.248;6.930;2023-12-07T05:05:01;1.30;99.90
13322;DHT22;6730;46.248;6.930;2023-12-07T05:07:27;1.10;99.90
13322;DHT22;6730;46.248;6.930;2023-12-07T05:09:53;1.20;99.90
13322;DHT22;6730;46.248;6.930;2023-12-07T05:12:18;1.30;99.90
13322;DHT22;6730;46.248;6.930;2023-12-07T05:14:44;1.30;99.90
13322;DHT22;6730;46.248;6.930;2023-12-07T05:17:10;1.30;99.90
13322;DHT22;6730;46.248;6.930;2023-12-07T05:19:36;1.20;99.90
13322;DHT22;6730;46.248;6.930;2023-12-07T05:22:01;1.40;99.90
13322;DHT22;6730;46.248;6.930;2023-12-07T05:24:28;1.30;99.90
13322;DHT22;6730;46.248;6.930;2023-12-07T05:26:54;1.50;99.90
13322;DHT22;6730;46.248;6.930;2023-12-07T05:29:20;1.50;99.90
13322;DHT22;6730;46.248;6.930;2023-12-07T05:31:48;1.10;99.90
13322;DHT22;6730;46.248;6.930;2023-12-07T05:34:16;0.90;99.90
13322;DHT22;6730;46.248;6.930;2023-12-07T05:36:42;0.80;99.90
13322;DHT22;6730;46.248;6.930;2023-12-07T05:39:07;0.70;99.90
13322;DHT22;6730;46.248;6.930;2023-12-07T05:41:33;0.90;99.90
13322;DHT22;6730;46.248;6.930;2023-12-07T05:43:59;0.50;99.90
13322;DHT22;6730;46.248;6.930;2023-12-07T05:46:24;0.50;99.90
13322;DHT22;6730;46.248;6.930;2023-12-07T05:48:50;0.50;99.90
13322;DHT22;6730;46.248;6.930;2023-12-07T05:51:17;0.40;99.90
13322;DHT22;6730;46.248;6.930;2023-12-07T05:53:44;0.30;99.90
13322;DHT22;6730;46.248;6.930;2023-12-07T05:56:10;0.30;99.90
13322;DHT22;6730;46.248;6.930;2023-12-07T05:58:37;0.20;99.90
13322;DHT22;6730;46.248;6.930;2023-12-07T06:01:02;0.30;99.90
13322;DHT22;6730;46.248;6.930;2023-12-07T06:03:29;0.50;99.90
13322;DHT22;6730;46.248;6.930;2023-12-07T06:05:55;0.70;99.90
13322;DHT22;6730;46.248;6.930;2023-12-07T06:08:21;0.70;99.90
13322;DHT22;6730;46.248;6.930;2023-12-07T06:10:47;0.80;99.90
13322;DHT22;6730;46.248;6.930;2023-12-07T06:13:13;0.80;99.90
13322;DHT22;6730;46.248;6.930;2023-12-07T06:15:42;0.60;99.90
13322;DHT22;6730;46.248;6.930;2023-12-07T06:18:08;0.40;99.90
13322;DHT22;6730;46.248;6.930;2023-12-07T06:20:34;0.40;99.90
13322;DHT22;6730;46.248;6.930;2023-12-07T06:23:00;0.60;99.90
13322;DHT22;6730;46.248;6.930;2023-12-07T06:25:27;0.60;99.90
13322;DHT22;6730;46.248;6.930;2023-12-07T06:27:55;0.80;99.90
13322;DHT22;6730;46.248;6.930;2023-12-07T06:30:21;1.10;99.90
13322;DHT22;6730;46.248;6.930;2023-12-07T06:32:49;1.10;99.90
13322;DHT22;6730;46.248;6.930;2023-12-07T06:35:15;1.30;99.90
13322;DHT22;6730;46.248;6.930;2023-12-07T06:37:41;1.40;99.90
13322;DHT22;6730;46.248;6.930;2023-12-07T06:40:09;1.00;99.90
13322;DHT22;6730;46.248;6.930;2023-12-07T06:42:39;0.90;99.90
13322;DHT22;6730;46.248;6.930;2023-12-07T06:45:10;1.00;99.90
13322;DHT22;6730;46.248;6.930;2023-12-07T06:47:40;1.10;99.90
13322;DHT22;6730;46.248;6.930;2023-12-07T06:50:10;1.20;99.90
13322;DHT22;6730;46.248;6.930;2023-12-07T06:52:38;1.40;99.90
13322;DHT22;6730;46.248;6.930;2023-12-07T06:55:39;1.10;99.90
13322;DHT22;6730;46.248;6.930;2023-12-07T06:58:30;0.90;99.90
13322;DHT22;6730;46.248;6.930;2023-12-07T07:01:02;0.70;99.90
13322;DHT22;6730;46.248;6.930;2023-12-07T07:03:31;0.70;99.90
13322;DHT22;6730;46.248;6.930;2023-12-07T07:06:01;0.70;99.90
13322;DHT22;6730;46.248;6.930;2023-12-07T07:08:32;0.90;99.90
13322;DHT22;6730;46.248;6.930;2023-12-07T07:11:08;1.00;99.90
13322;DHT22;6730;46.248;6.930;2023-12-07T07:13:39;0.90;99.90
13322;DHT22;6730;46.248;6.930;2023-12-07T07:16:13;0.80;99.90
13322;DHT22;6730;46.248;6.930;2023-12-07T07:18:45;0.70;99.90
13322;DHT22;6730;46.248;6.930;2023-12-07T07:21:16;0.80;99.90
13322;DHT22;6730;46.248;6.930;2023-12-07T07:23:44;0.70;99.90
13322;DHT22;6730;46.248;6.930;2023-12-07T07:26:19;0.70;99.90
13322;DHT22;6730;46.248;6.930;2023-12-07T07:28:52;0.90;99.90
13322;DHT22;6730;46.248;6.930;2023-12-07T07:31:24;0.80;99.90
13322;DHT22;6730;46.248;6.930;2023-12-07T07:33:56;0.70;99.90
13322;DHT22;6730;46.248;6.930;2023-12-07T07:36:25;0.70;99.90
13322;DHT22;6730;46.248;6.930;2023-12-07T07:39:02;0.60;99.90
13322;DHT22;6730;46.248;6.930;2023-12-07T07:41:43;0.70;99.90
13322;DHT22;6730;46.248;6.930;2023-12-07T07:44:14;0.60;99.90
13322;DHT22;6730;46.248;6.930;2023-12-07T07:46:49;0.60;99.90
13322;DHT22;6730;46.248;6.930;2023-12-07T07:49:23;0.60;99.90
13322;DHT22;6730;46.248;6.930;2023-12-07T07:52:11;0.90;99.90
13322;DHT22;6730;46.248;6.930;2023-12-07T07:55:03;1.20;99.90
13322;DHT22;6730;46.248;6.930;2023-12-07T07:57:35;1.20;99.90
13322;DHT22;6730;46.248;6.930;2023-12-07T08:00:02;1.40;99.90
13322;DHT22;6730;46.248;6.930;2023-12-07T08:02:34;2.20;99.90
13322;DHT22;6730;46.248;6.930;2023-12-07T08:05:09;3.30;99.90
13322;DHT22;6730;46.248;6.930;2023-12-07T08:07:44;3.80;99.90
13322;DHT22;6730;46.248;6.930;2023-12-07T08:10:15;4.20;99.90
13322;DHT22;6730;46.248;6.930;2023-12-07T08:12:44;4.20;99.90
13322;DHT22;6730;46.248;6.930;2023-12-07T08:15:19;4.20;99.90
13322;DHT22;6730;46.248;6.930;2023-12-07T08:17:50;4.80;99.90
13322;DHT22;6730;46.248;6.930;2023-12-07T08:20:31;5.30;99.90
13322;DHT22;6730;46.248;6.930;2023-12-07T08:23:00;5.50;99.90
13322;DHT22;6730;46.248;6.930;2023-12-07T08:25:34;5.40;99.90
13322;DHT22;6730;46.248;6.930;2023-12-07T08:28:01;5.40;99.90
13322;DHT22;6730;46.248;6.930;2023-12-07T08:30:33;4.70;99.90
13322;DHT22;6730;46.248;6.930;2023-12-07T08:33:03;3.10;99.90
13322;DHT22;6730;46.248;6.930;2023-12-07T08:35:32;2.70;99.90
13322;DHT22;6730;46.248;6.930;2023-12-07T08:38:01;2.90;99.90
13322;DHT22;6730;46.248;6.930;2023-12-07T08:40:45;2.60;99.90
13322;DHT22;6730;46.248;6.930;2023-12-07T08:43:21;2.80;99.90
13322;DHT22;6730;46.248;6.930;2023-12-07T08:45:52;3.20;99.90
13322;DHT22;6730;46.248;6.930;2023-12-07T08:48:24;3.60;99.90
13322;DHT22;6730;46.248;6.930;2023-12-07T08:50:52;4.80;99.90
13322;DHT22;6730;46.248;6.930;2023-12-07T08:53:21;6.00;99.90
13322;DHT22;6730;46.248;6.930;2023-12-07T08:55:52;7.30;99.90
13322;DHT22;6730;46.248;6.930;2023-12-07T08:58:19;7.60;99.90
13322;DHT22;6730;46.248;6.930;2023-12-07T09:00:47;7.80;99.90
13322;DHT22;6730;46.248;6.930;2023-12-07T09:03:27;7.90;99.90
13322;DHT22;6730;46.248;6.930;2023-12-07T09:06:04;8.50;99.90
13322;DHT22;6730;46.248;6.930;2023-12-07T09:08:36;9.10;99.90
13322;DHT22;6730;46.248;6.930;2023-12-07T09:11:06;8.30;99.90
13322;DHT22;6730;46.248;6.930;2023-12-07T09:13:46;8.40;99.90
13322;DHT22;6730;46.248;6.930;2023-12-07T09:16:13;8.20;99.90
13322;DHT22;6730;46.248;6.930;2023-12-07T09:18:44;7.90;99.90
13322;DHT22;6730;46.248;6.930;2023-12-07T09:21:12;7.60;99.90
13322;DHT22;6730;46.248;6.930;2023-12-07T09:23:41;8.50;99.90
13322;DHT22;6730;46.248;6.930;2023-12-07T09:26:08;9.50;99.90
13322;DHT22;6730;46.248;6.930;2023-12-07T09:28:39;10.50;99.90
13322;DHT22;6730;46.248;6.930;2023-12-07T09:31:08;11.00;99.30
13322;DHT22;6730;46.248;6.930;2023-12-07T09:33:34;11.00;99.30
13322;DHT22;6730;46.248;6.930;2023-12-07T09:36:18;10.20;98.60
13322;DHT22;6730;46.248;6.930;2023-12-07T09:38:54;9.60;99.10
13322;DHT22;6730;46.248;6.930;2023-12-07T09:41:21;8.70;99.30
13322;DHT22;6730;46.248;6.930;2023-12-07T09:43:53;8.40;99.10
13322;DHT22;6730;46.248;6.930;2023-12-07T09:46:22;7.70;99.60
13322;DHT22;6730;46.248;6.930;2023-12-07T09:48:55;7.40;99.90
13322;DHT22;6730;46.248;6.930;2023-12-07T09:51:25;8.30;99.90
13322;DHT22;6730;46.248;6.930;2023-12-07T09:53:55;9.50;99.90
13322;DHT22;6730;46.248;6.930;2023-12-07T09:56:21;9.80;99.30
13322;DHT22;6730;46.248;6.930;2023-12-07T09:58:51;8.40;99.70
13322;DHT22;6730;46.248;6.930;2023-12-07T10:01:18;7.50;99.90
13322;DHT22;6730;46.248;6.930;2023-12-07T10:03:47;6.90;99.90
13322;DHT22;6730;46.248;6.930;2023-12-07T10:06:14;7.10;99.90
13322;DHT22;6730;46.248;6.930;2023-12-07T10:08:40;7.70;99.90
13322;DHT22;6730;46.248;6.930;2023-12-07T10:11:08;8.20;99.90
13322;DHT22;6730;46.248;6.930;2023-12-07T10:13:40;8.70;99.90
13322;DHT22;6730;46.248;6.930;2023-12-07T10:18:39;9.50;99.80
13322;DHT22;6730;46.248;6.930;2023-12-07T10:21:07;9.60;99.70
13322;DHT22;6730;46.248;6.930;2023-12-07T10:23:35;9.60;99.90
13322;DHT22;6730;46.248;6.930;2023-12-07T10:26:02;9.30;99.10
13322;DHT22;6730;46.248;6.930;2023-12-07T10:28:30;8.30;99.90
13322;DHT22;6730;46.248;6.930;2023-12-07T10:30:57;8.10;99.90
13322;DHT22;6730;46.248;6.930;2023-12-07T10:33:27;7.90;99.90
13322;DHT22;6730;46.248;6.930;2023-12-07T10:35:55;8.00;99.90
13322;DHT22;6730;46.248;6.930;2023-12-07T10:38:21;8.30;99.90
13322;DHT22;6730;46.248;6.930;2023-12-07T10:40:50;8.10;99.90
13322;DHT22;6730;46.248;6.930;2023-12-07T10:43:21;7.70;99.90
13322;DHT22;6730;46.248;6.930;2023-12-07T10:45:48;7.60;99.90
13322;DHT22;6730;46.248;6.930;2023-12-07T10:48:17;7.20;99.90
13322;DHT22;6730;46.248;6.930;2023-12-07T10:50:46;6.60;99.90
13322;DHT22;6730;46.248;6.930;2023-12-07T10:53:27;6.40;99.90
13322;DHT22;6730;46.248;6.930;2023-12-07T10:55:58;6.50;99.90
13322;DHT22;6730;46.248;6.930;2023-12-07T10:58:26;7.00;99.90
13322;DHT22;6730;46.248;6.930;2023-12-07T11:00:56;7.60;99.90
13322;DHT22;6730;46.248;6.930;2023-12-07T11:03:24;7.40;99.90
13322;DHT22;6730;46.248;6.930;2023-12-07T11:05:50;6.80;99.90
13322;DHT22;6730;46.248;6.930;2023-12-07T11:11:07;6.80;99.90
13322;DHT22;6730;46.248;6.930;2023-12-07T11:13:36;7.40;99.90
13322;DHT22;6730;46.248;6.930;2023-12-07T11:16:04;7.30;99.90
13322;DHT22;6730;46.248;6.930;2023-12-07T11:18:30;6.80;99.90
13322;DHT22;6730;46.248;6.930;2023-12-07T11:20:57;6.80;99.90
13322;DHT22;6730;46.248;6.930;2023-12-07T11:23:25;6.90;99.90
13322;DHT22;6730;46.248;6.930;2023-12-07T11:25:52;7.20;99.90
13322;DHT22;6730;46.248;6.930;2023-12-07T11:28:48;7.30;99.90
13322;DHT22;6730;46.248;6.930;2023-12-07T11:31:15;7.50;99.90
13322;DHT22;6730;46.248;6.930;2023-12-07T11:33:42;7.50;99.90
13322;DHT22;6730;46.248;6.930;2023-12-07T11:36:10;8.10;99.90
13322;DHT22;6730;46.248;6.930;2023-12-07T11:38:39;8.70;99.90
13322;DHT22;6730;46.248;6.930;2023-12-07T11:41:29;8.80;99.90
13322;DHT22;6730;46.248;6.930;2023-12-07T11:43:58;8.90;99.00
13322;DHT22;6730;46.248;6.930;2023-12-07T11:46:25;8.00;99.90
13322;DHT22;6730;46.248;6.930;2023-12-07T11:48:51;7.30;99.90
13322;DHT22;6730;46.248;6.930;2023-12-07T11:51:19;7.50;99.90
13322;DHT22;6730;46.248;6.930;2023-12-07T11:53:47;7.50;99.90
13322;DHT22;6730;46.248;6.930;2023-12-07T11:56:17;7.30;99.90
13322;DHT22;6730;46.248;6.930;2023-12-07T11:58:47;7.80;99.90
13322;DHT22;6730;46.248;6.930;2023-12-07T12:01:16;8.70;99.70
13322;DHT22;6730;46.248;6.930;2023-12-07T12:03:43;9.10;99.10
13322;DHT22;6730;46.248;6.930;2023-12-07T12:06:09;8.20;99.00
13322;DHT22;6730;46.248;6.930;2023-12-07T12:08:39;8.30;99.70
13322;DHT22;6730;46.248;6.930;2023-12-07T12:11:06;7.90;99.90
13322;DHT22;6730;46.248;6.930;2023-12-07T12:13:36;8.40;99.90
13322;DHT22;6730;46.248;6.930;2023-12-07T12:16:03;8.90;99.10
13322;DHT22;6730;46.248;6.930;2023-12-07T12:18:29;9.50;97.80
13322;DHT22;6730;46.248;6.930;2023-12-07T12:20:56;10.10;98.90
13322;DHT22;6730;46.248;6.930;2023-12-07T12:23:25;9.80;96.80
13322;DHT22;6730;46.248;6.930;2023-12-07T12:25:51;9.50;97.20
13322;DHT22;6730;46.248;6.930;2023-12-07T12:28:19;9.50;98.40
13322;DHT22;6730;46.248;6.930;2023-12-07T12:30:50;9.60;98.90
13322;DHT22;6730;46.248;6.930;2023-12-07T12:33:17;9.60;96.90
13322;DHT22;6730;46.248;6.930;2023-12-07T12:35:44;9.40;96.50
13322;DHT22;6730;46.248;6.930;2023-12-07T12:38:11;6.90;98.10
13322;DHT22;6730;46.248;6.930;2023-12-07T12:40:38;5.50;99.90
13322;DHT22;6730;46.248;6.930;2023-12-07T12:43:05;4.70;99.90
13322;DHT22;6730;46.248;6.930;2023-12-07T12:45:32;4.70;99.90
13322;DHT22;6730;46.248;6.930;2023-12-07T12:47:58;5.20;99.90
13322;DHT22;6730;46.248;6.930;2023-12-07T12:50:41;5.70;99.90
13322;DHT22;6730;46.248;6.930;2023-12-07T12:53:09;6.30;99.90
13322;DHT22;6730;46.248;6.930;2023-12-07T12:55:40;6.70;99.90
13322;DHT22;6730;46.248;6.930;2023-12-07T12:58:09;6.70;99.90
13322;DHT22;6730;46.248;6.930;2023-12-07T13:00:39;5.80;99.90
13322;DHT22;6730;46.248;6.930;2023-12-07T13:03:10;5.20;99.90
13322;DHT22;6730;46.248;6.930;2023-12-07T13:05:41;5.30;99.90
13322;DHT22;6730;46.248;6.930;2023-12-07T13:08:07;5.80;99.90
13322;DHT22;6730;46.248;6.930;2023-12-07T13:10:35;5.80;99.90
13322;DHT22;6730;46.248;6.930;2023-12-07T13:13:01;5.20;99.90
13322;DHT22;6730;46.248;6.930;2023-12-07T13:15:28;4.90;99.90
13322;DHT22;6730;46.248;6.930;2023-12-07T13:17:55;4.70;99.90
13322;DHT22;6730;46.248;6.930;2023-12-07T13:20:21;4.30;99.90
13322;DHT22;6730;46.248;6.930;2023-12-07T13:22:48;4.10;99.90
13322;DHT22;6730;46.248;6.930;2023-12-07T13:25:14;4.30;99.90
13322;DHT22;6730;46.248;6.930;2023-12-07T13:27:43;4.70;99.90
13322;DHT22;6730;46.248;6.930;2023-12-07T13:30:09;4.90;99.90
13322;DHT22;6730;46.248;6.930;2023-12-07T13:32:36;4.60;99.90
13322;DHT22;6730;46.248;6.930;2023-12-07T13:35:06;4.50;99.90
13322;DHT22;6730;46.248;6.930;2023-12-07T13:37:33;4.40;99.90
13322;DHT22;6730;46.248;6.930;2023-12-07T13:40:01;4.30;99.90
13322;DHT22;6730;46.248;6.930;2023-12-07T13:42:30;4.30;99.90
13322;DHT22;6730;46.248;6.930;2023-12-07T13:44:58;4.50;99.90
13322;DHT22;6730;46.248;6.930;2023-12-07T13:47:27;5.10;99.90
13322;DHT22;6730;46.248;6.930;2023-12-07T13:49:58;5.80;99.90
13322;DHT22;6730;46.248;6.930;2023-12-07T13:52:26;6.30;99.90
13322;DHT22;6730;46.248;6.930;2023-12-07T13:54:52;6.80;99.90
13322;DHT22;6730;46.248;6.930;2023-12-07T13:57:21;6.80;99.90
13322;DHT22;6730;46.248;6.930;2023-12-07T13:59:50;6.20;99.90
13322;DHT22;6730;46.248;6.930;2023-12-07T14:02:17;5.30;99.90
13322;DHT22;6730;46.248;6.930;2023-12-07T14:04:44;5.10;99.90
13322;DHT22;6730;46.248;6.930;2023-12-07T14:07:14;4.80;99.90
13322;DHT22;6730;46.248;6.930;2023-12-07T14:09:42;4.20;99.90
13322;DHT22;6730;46.248;6.930;2023-12-07T14:12:09;4.00;99.90
13322;DHT22;6730;46.248;6.930;2023-12-07T14:14:39;3.80;99.90
13322;DHT22;6730;46.248;6.930;2023-12-07T14:17:05;3.70;99.90
13322;DHT22;6730;46.248;6.930;2023-12-07T14:19:32;3.50;99.90
13322;DHT22;6730;46.248;6.930;2023-12-07T14:22:04;3.50;99.90
13322;DHT22;6730;46.248;6.930;2023-12-07T14:24:35;3.50;99.90
13322;DHT22;6730;46.248;6.930;2023-12-07T14:27:05;4.30;99.90
13322;DHT22;6730;46.248;6.930;2023-12-07T14:29:32;4.80;99.90
13322;DHT22;6730;46.248;6.930;2023-12-07T14:31:59;5.40;99.90
13322;DHT22;6730;46.248;6.930;2023-12-07T14:34:27;5.70;99.90
13322;DHT22;6730;46.248;6.930;2023-12-07T14:36:56;6.00;99.90
13322;DHT22;6730;46.248;6.930;2023-12-07T14:39:23;6.10;99.90
13322;DHT22;6730;46.248;6.930;2023-12-07T14:41:50;6.10;99.90
13322;DHT22;6730;46.248;6.930;2023-12-07T14:44:24;5.90;99.90
13322;DHT22;6730;46.248;6.930;2023-12-07T14:46:51;5.80;99.90
13322;DHT22;6730;46.248;6.930;2023-12-07T14:49:22;5.70;99.90
13322;DHT22;6730;46.248;6.930;2023-12-07T14:51:49;5.80;99.90
13322;DHT22;6730;46.248;6.930;2023-12-07T14:54:25;5.60;99.90
13322;DHT22;6730;46.248;6.930;2023-12-07T14:56:59;5.30;99.90
13322;DHT22;6730;46.248;6.930;2023-12-07T15:02:41;4.90;99.90
13322;DHT22;6730;46.248;6.930;2023-12-07T15:05:37;5.00;99.90
13322;DHT22;6730;46.248;6.930;2023-12-07T15:08:17;5.00;99.90
13322;DHT22;6730;46.248;6.930;2023-12-07T15:14:55;5.60;99.90
13322;DHT22;6730;46.248;6.930;2023-12-07T15:20:43;5.70;99.90
13322;DHT22;6730;46.248;6.930;2023-12-07T15:23:38;5.80;99.90
13322;DHT22;6730;46.248;6.930;2023-12-07T15:26:29;5.70;99.90
13322;DHT22;6730;46.248;6.930;2023-12-07T15:29:07;5.40;99.90
13322;DHT22;6730;46.248;6.930;2023-12-07T15:31:44;5.20;99.90
13322;DHT22;6730;46.248;6.930;2023-12-07T15:34:49;5.10;99.90
13322;DHT22;6730;46.248;6.930;2023-12-07T15:37:38;5.10;99.90
13322;DHT22;6730;46.248;6.930;2023-12-07T15:47:06;5.40;99.90
13322;DHT22;6730;46.248;6.930;2023-12-07T15:49:44;5.50;99.90
13322;DHT22;6730;46.248;6.930;2023-12-07T15:52:12;5.60;99.90
13322;DHT22;6730;46.248;6.930;2023-12-07T15:55:07;5.50;99.90
13322;DHT22;6730;46.248;6.930;2023-12-07T15:58:32;5.30;99.90
13322;DHT22;6730;46.248;6.930;2023-12-07T16:01:11;4.80;99.90
13322;DHT22;6730;46.248;6.930;2023-12-07T16:04:11;4.30;99.90
13322;DHT22;6730;46.248;6.930;2023-12-07T16:10:17;4.40;99.90
13322;DHT22;6730;46.248;6.930;2023-12-07T16:31:57;5.00;99.90
13322;DHT22;6730;46.248;6.930;2023-12-07T16:37:23;4.50;99.90
13322;DHT22;6730;46.248;6.930;2023-12-07T16:40:20;4.50;99.90
13322;DHT22;6730;46.248;6.930;2023-12-07T16:46:28;4.40;99.90
13322;DHT22;6730;46.248;6.930;2023-12-07T16:49:25;4.60;99.90
13322;DHT22;6730;46.248;6.930;2023-12-07T16:51:55;4.70;99.90
13322;DHT22;6730;46.248;6.930;2023-12-07T16:54:31;4.60;99.90
13322;DHT22;6730;46.248;6.930;2023-12-07T16:57:09;4.60;99.90
13322;DHT22;6730;46.248;6.930;2023-12-07T16:59:56;4.50;99.90
13322;DHT22;6730;46.248;6.930;2023-12-07T17:02:31;4.70;99.90
13322;DHT22;6730;46.248;6.930;2023-12-07T17:05:10;4.70;99.90
13322;DHT22;6730;46.248;6.930;2023-12-07T17:07:38;4.80;99.90
13322;DHT22;6730;46.248;6.930;2023-12-07T17:10:19;4.60;99.90
13322;DHT22;6730;46.248;6.930;2023-12-07T17:13:19;4.30;99.90